createdAt,value
2023-03-01T00:04:21.197Z,0
2023-03-01T00:09:25.368Z,0
2023-03-01T00:14:29.520Z,0
2023-03-01T00:19:33.690Z,0
2023-03-01T00:24:37.897Z,0
2023-03-01T00:29:42.052Z,0
2023-03-01T00:34:46.201Z,0
2023-03-01T00:39:50.365Z,0
2023-03-01T00:44:54.593Z,0
2023-03-01T00:49:58.705Z,0
2023-03-01T00:55:02.881Z,0
2023-03-01T01:00:05.151Z,0
2023-03-01T01:05:09.334Z,0
2023-03-01T01:10:13.478Z,0
2023-03-01T01:15:17.693Z,0
2023-03-01T01:20:21.824Z,0
2023-03-01T01:25:26.022Z,0
2023-03-01T01:30:30.541Z,0
2023-03-01T01:35:34.364Z,0
2023-03-01T01:40:38.500Z,0
2023-03-01T01:45:40.771Z,0
2023-03-01T01:50:44.905Z,0
2023-03-01T01:55:49.111Z,0
2023-03-01T02:00:53.280Z,0
2023-03-01T02:05:57.439Z,0
2023-03-01T02:11:01.633Z,0
2023-03-01T02:16:05.788Z,0
2023-03-01T02:21:09.957Z,0
2023-03-01T02:26:14.144Z,0
2023-03-01T02:31:18.340Z,0
2023-03-01T02:36:22.457Z,0
2023-03-01T02:41:26.602Z,0
2023-03-01T02:46:31.125Z,0
2023-03-01T02:51:34.976Z,0
2023-03-01T02:56:39.129Z,0
2023-03-01T03:01:43.286Z,0
2023-03-01T03:06:47.464Z,0
2023-03-01T03:11:51.767Z,0
2023-03-01T03:16:55.793Z,0
2023-03-01T03:21:59.965Z,0
2023-03-01T03:27:04.132Z,0
2023-03-01T03:32:06.416Z,0
2023-03-01T03:37:10.602Z,0
2023-03-01T03:42:12.854Z,0
2023-03-01T03:47:17.037Z,0
2023-03-01T03:52:19.313Z,0
2023-03-01T03:57:23.498Z,0
2023-03-01T04:02:27.711Z,0
2023-03-01T04:07:31.815Z,0
2023-03-01T04:12:35.988Z,0
2023-03-01T04:17:40.254Z,0
2023-03-01T04:22:44.340Z,0
2023-03-01T04:27:48.522Z,0
2023-03-01T04:32:52.670Z,0
2023-03-01T04:37:56.847Z,0
2023-03-01T04:43:01.000Z,0
2023-03-01T04:48:05.170Z,0
2023-03-01T04:53:09.327Z,0
2023-03-01T04:58:13.539Z,0
2023-03-01T05:03:17.659Z,0
2023-03-01T05:08:21.875Z,0
2023-03-01T05:13:26.039Z,0
2023-03-01T05:18:30.199Z,0
2023-03-01T05:23:34.358Z,0
2023-03-01T05:28:38.534Z,0
2023-03-01T05:33:42.699Z,0
2023-03-01T05:38:44.978Z,0
2023-03-01T05:43:49.164Z,0
2023-03-01T05:48:53.315Z,0
2023-03-01T05:53:57.483Z,0
2023-03-01T05:58:59.796Z,4
2023-03-01T06:04:03.959Z,10
2023-03-01T06:09:08.182Z,25
2023-03-01T06:14:12.271Z,53
2023-03-01T06:19:16.453Z,96
2023-03-01T06:24:20.616Z,150
2023-03-01T06:29:24.816Z,221
2023-03-01T06:34:28.950Z,309
2023-03-01T06:39:33.175Z,417
2023-03-01T06:44:37.297Z,507
2023-03-01T06:49:41.492Z,582
2023-03-01T06:54:45.690Z,665
2023-03-01T06:59:49.794Z,749
2023-03-01T07:04:53.987Z,820
2023-03-01T07:09:58.175Z,887
2023-03-01T07:15:02.344Z,947
2023-03-01T07:20:06.467Z,999
2023-03-01T07:25:10.667Z,1050
2023-03-01T07:30:14.825Z,1094
2023-03-01T07:35:19.003Z,1141
2023-03-01T07:40:23.195Z,1171
2023-03-01T07:45:25.456Z,1203
2023-03-01T07:50:29.637Z,1241
2023-03-01T07:55:31.922Z,1277
2023-03-01T08:00:36.075Z,1304
2023-03-01T08:05:40.361Z,1315
2023-03-01T08:10:44.394Z,1330
2023-03-01T08:15:48.550Z,1358
2023-03-01T08:20:52.730Z,1382
2023-03-01T08:25:56.911Z,1400
2023-03-01T08:31:01.300Z,1425
2023-03-01T08:36:05.285Z,1448
2023-03-01T08:46:13.667Z,1485
2023-03-01T08:51:18.748Z,1503
2023-03-01T08:56:21.941Z,1503
2023-03-01T09:01:26.053Z,1509
2023-03-01T09:06:30.527Z,1534
2023-03-01T09:11:34.394Z,1561
2023-03-01T09:16:38.687Z,1583
2023-03-01T09:21:42.742Z,1618
2023-03-01T09:26:46.919Z,1636
2023-03-01T09:31:51.121Z,1640
2023-03-01T09:36:55.245Z,1645
2023-03-01T09:41:59.426Z,1679
2023-03-01T09:47:01.705Z,1696
2023-03-01T09:52:05.856Z,1716
2023-03-01T09:57:08.147Z,1740
2023-03-01T10:02:12.292Z,1725
2023-03-01T10:07:16.452Z,1715
2023-03-01T10:12:20.632Z,1735
2023-03-01T10:17:24.774Z,1758
2023-03-01T10:22:28.963Z,1766
2023-03-01T10:27:33.119Z,1775
2023-03-01T10:32:37.326Z,1783
2023-03-01T10:37:41.448Z,1790
2023-03-01T10:42:45.626Z,1805
2023-03-01T10:47:49.781Z,1839
2023-03-01T10:52:53.893Z,1842
2023-03-01T10:57:58.105Z,1860
2023-03-01T11:03:02.269Z,1888
2023-03-01T11:08:06.497Z,1943
2023-03-01T11:13:10.573Z,2017
2023-03-01T11:18:14.762Z,2070
2023-03-01T11:23:18.884Z,2125
2023-03-01T11:28:23.085Z,2137
2023-03-01T11:33:27.213Z,2130
2023-03-01T11:38:31.419Z,2125
2023-03-01T11:43:33.690Z,2112
2023-03-01T11:48:48.991Z,2134
2023-03-01T11:53:40.111Z,2131
2023-03-01T11:58:44.311Z,2170
2023-03-01T12:03:48.429Z,2165
2023-03-01T12:08:52.628Z,2134
2023-03-01T12:13:56.780Z,2135
2023-03-01T12:19:00.963Z,2167
2023-03-01T12:24:05.084Z,2183
2023-03-01T12:29:09.262Z,2207
2023-03-01T12:34:13.412Z,2206
2023-03-01T12:39:19.971Z,2211
2023-03-01T12:44:21.794Z,2221
2023-03-01T12:49:25.902Z,2231
2023-03-01T12:54:30.063Z,2215
2023-03-01T12:59:34.325Z,2212
2023-03-01T13:04:38.381Z,2217
2023-03-01T13:09:42.562Z,2238
2023-03-01T13:14:46.709Z,2245
2023-03-01T13:19:50.875Z,2234
2023-03-01T13:24:55.015Z,2221
2023-03-01T13:29:59.194Z,2212
2023-03-01T13:35:03.365Z,2187
2023-03-01T13:40:05.640Z,2205
2023-03-01T13:45:09.857Z,2197
2023-03-01T13:50:14.073Z,2194
2023-03-01T13:55:18.153Z,2209
2023-03-01T14:00:22.307Z,2199
2023-03-01T14:05:26.439Z,2199
2023-03-01T14:10:30.629Z,2192
2023-03-01T14:15:34.910Z,2162
2023-03-01T14:20:38.946Z,2139
2023-03-01T14:25:43.139Z,2123
2023-03-01T14:30:47.307Z,2115
2023-03-01T14:35:51.506Z,2092
2023-03-01T14:40:55.627Z,2090
2023-03-01T14:45:59.951Z,2056
2023-03-01T14:51:03.968Z,2029
2023-03-01T14:56:08.113Z,2020
2023-03-01T15:01:12.271Z,2015
2023-03-01T15:06:16.400Z,2008
2023-03-01T15:11:20.582Z,1990
2023-03-01T15:16:24.813Z,1968
2023-03-01T15:21:28.909Z,1933
2023-03-01T15:26:31.422Z,1894
2023-03-01T15:31:35.351Z,1879
2023-03-01T15:41:41.782Z,1834
2023-03-01T15:46:46.127Z,1785
2023-03-01T15:51:50.071Z,1740
2023-03-01T15:56:54.255Z,1691
2023-03-01T16:01:58.416Z,1629
2023-03-01T16:07:02.563Z,1565
2023-03-01T16:12:06.763Z,1505
2023-03-01T16:17:11.020Z,1425
2023-03-01T16:22:15.051Z,1349
2023-03-01T16:27:19.230Z,1290
2023-03-01T16:32:23.463Z,1166
2023-03-01T16:37:27.566Z,1068
2023-03-01T16:42:31.720Z,952
2023-03-01T16:47:35.911Z,824
2023-03-01T16:52:40.054Z,695
2023-03-01T16:57:44.251Z,565
2023-03-01T17:02:48.585Z,439
2023-03-01T17:07:52.533Z,320
2023-03-01T17:12:56.718Z,215
2023-03-01T17:17:58.974Z,134
2023-03-01T17:23:03.150Z,75
2023-03-01T17:28:05.402Z,37
2023-03-01T17:33:09.577Z,16
2023-03-01T17:38:13.737Z,6
2023-03-01T17:43:18.935Z,1
2023-03-01T17:48:20.197Z,0
2023-03-01T17:53:24.327Z,0
2023-03-01T17:58:26.632Z,0
2023-03-01T18:08:34.965Z,0
2023-03-01T18:13:39.079Z,0
2023-03-01T18:18:43.303Z,0
2023-03-01T18:23:47.441Z,0
2023-03-01T18:28:51.661Z,0
2023-03-01T18:33:55.788Z,0
2023-03-01T18:38:59.956Z,0
2023-03-01T18:44:04.100Z,0
2023-03-01T18:49:08.271Z,0
2023-03-01T18:54:12.427Z,0
2023-03-01T18:59:16.584Z,0
2023-03-01T19:04:20.737Z,0
2023-03-01T19:09:25.038Z,0
2023-03-01T19:14:29.101Z,0
2023-03-01T19:19:33.260Z,0
2023-03-01T19:24:37.420Z,0
2023-03-01T19:29:41.564Z,0
2023-03-01T19:34:45.772Z,0
2023-03-01T19:39:48.019Z,0
2023-03-01T19:44:52.194Z,0
2023-03-01T19:49:54.466Z,0
2023-03-01T19:55:08.821Z,0
2023-03-01T20:00:02.774Z,0
2023-03-01T20:05:06.953Z,0
2023-03-01T20:10:11.132Z,0
2023-03-01T20:15:15.262Z,0
2023-03-01T20:20:19.479Z,0
2023-03-01T20:25:23.642Z,0
2023-03-01T20:30:27.774Z,0
2023-03-01T20:35:32.003Z,0
2023-03-01T20:40:36.108Z,0
2023-03-01T20:45:40.244Z,0
2023-03-01T20:50:44.458Z,0
2023-03-01T20:55:48.620Z,0
2023-03-01T21:00:52.959Z,0
2023-03-01T21:05:59.311Z,0
2023-03-01T21:11:01.089Z,0
2023-03-01T21:16:05.353Z,0
2023-03-01T21:21:09.459Z,0
2023-03-01T21:26:13.581Z,0
2023-03-01T21:31:17.852Z,0
2023-03-01T21:36:20.064Z,0
2023-03-01T21:41:24.204Z,0
2023-03-01T21:46:26.464Z,0
2023-03-01T21:51:30.664Z,0
2023-03-01T21:56:35.116Z,0
2023-03-01T22:01:39.030Z,0
2023-03-01T22:06:43.150Z,0
2023-03-01T22:11:47.291Z,0
2023-03-01T22:16:51.855Z,0
2023-03-01T22:21:55.609Z,0
2023-03-01T22:26:59.775Z,0
2023-03-01T22:32:04.198Z,0
2023-03-01T22:37:08.116Z,0
2023-03-01T22:42:12.314Z,0
2023-03-01T22:47:16.477Z,0
2023-03-01T22:52:20.642Z,0
2023-03-01T22:57:24.816Z,0
2023-03-01T23:02:29.100Z,0
2023-03-01T23:07:33.121Z,0
2023-03-01T23:12:37.267Z,0
2023-03-01T23:17:41.470Z,0
2023-03-01T23:22:45.622Z,0
2023-03-01T23:27:49.775Z,0
2023-03-01T23:32:52.130Z,0
2023-03-01T23:37:56.232Z,0
2023-03-01T23:42:58.483Z,0
2023-03-01T23:48:02.657Z,0
2023-03-01T23:53:06.848Z,0
2023-03-01T23:58:11.001Z,0
